sensor_id;sensor_type;location;lat;lon;timestamp;pressure;altitude;pressure_sealevel;temperature;humidity
32251;BME280;41295;48.518;9.206;2022-12-07T00:00:07;97216.22;;;4.47;75.67
32251;BME280;41295;48.518;9.206;2022-12-07T00:02:09;97217.94;;;4.46;75.65
32251;BME280;41295;48.518;9.206;2022-12-07T00:04:14;97217.97;;;4.44;75.33
32251;BME280;41295;48.518;9.206;2022-12-07T00:06:18;97217.22;;;4.38;75.17
32251;BME280;41295;48.518;9.206;2022-12-07T00:08:20;97213.75;;;4.39;75.67
32251;BME280;41295;48.518;9.206;2022-12-07T00:10:23;97217.22;;;4.38;75.71
32251;BME280;41295;48.518;9.206;2022-12-07T00:12:26;97210.25;;;4.40;75.52
32251;BME280;41295;48.518;9.206;2022-12-07T00:14:28;97213.78;;;4.36;75.77
32251;BME280;41295;48.518;9.206;2022-12-07T00:16:34;97210.41;;;4.30;75.55
32251;BME280;41295;48.518;9.206;2022-12-07T00:18:37;97207.81;;;4.29;75.31
32251;BME280;41295;48.518;9.206;2022-12-07T00:20:40;97212.13;;;4.30;76.03
32251;BME280;41295;48.518;9.206;2022-12-07T00:22:42;97215.53;;;4.33;75.65
32251;BME280;41295;48.518;9.206;2022-12-07T00:24:45;97211.25;;;4.31;75.82
32251;BME280;41295;48.518;9.206;2022-12-07T00:26:48;97220.66;;;4.35;75.51
32251;BME280;41295;48.518;9.206;2022-12-07T00:28:52;97215.50;;;4.35;75.59
32251;BME280;41295;48.518;9.206;2022-12-07T00:31:00;97215.50;;;4.35;75.27
32251;BME280;41295;48.518;9.206;2022-12-07T00:33:03;97200.91;;;4.34;75.40
32251;BME280;41295;48.518;9.206;2022-12-07T00:35:07;97200.94;;;4.29;75.15
32251;BME280;41295;48.518;9.206;2022-12-07T00:37:10;97205.19;;;4.33;75.27
32251;BME280;41295;48.518;9.206;2022-12-07T00:39:14;97203.47;;;4.36;75.42
32251;BME280;41295;48.518;9.206;2022-12-07T00:41:18;97206.88;;;4.36;75.38
32251;BME280;41295;48.518;9.206;2022-12-07T00:43:21;97202.63;;;4.33;75.07
32251;BME280;41295;48.518;9.206;2022-12-07T00:45:24;97210.38;;;4.32;75.28
32251;BME280;41295;48.518;9.206;2022-12-07T00:47:26;97208.59;;;4.37;74.86
32251;BME280;41295;48.518;9.206;2022-12-07T00:49:30;97204.31;;;4.35;75.05
32251;BME280;41295;48.518;9.206;2022-12-07T00:51:33;97206.06;;;4.32;75.08
32251;BME280;41295;48.518;9.206;2022-12-07T00:53:36;97209.53;;;4.31;74.99
32251;BME280;41295;48.518;9.206;2022-12-07T00:55:42;97206.97;;;4.30;75.19
32251;BME280;41295;48.518;9.206;2022-12-07T00:57:45;97201.84;;;4.28;75.18
32251;BME280;41295;48.518;9.206;2022-12-07T00:59:48;97198.34;;;4.31;75.28
32251;BME280;41295;48.518;9.206;2022-12-07T01:01:51;97200.06;;;4.32;75.48
32251;BME280;41295;48.518;9.206;2022-12-07T01:03:53;97203.50;;;4.31;75.45
32251;BME280;41295;48.518;9.206;2022-12-07T01:05:57;97200.91;;;4.32;75.65
32251;BME280;41295;48.518;9.206;2022-12-07T01:08:00;97195.81;;;4.28;75.42
32251;BME280;41295;48.518;9.206;2022-12-07T01:10:04;97197.53;;;4.27;75.81
32251;BME280;41295;48.518;9.206;2022-12-07T01:12:07;97206.88;;;4.36;75.66
32251;BME280;41295;48.518;9.206;2022-12-07T01:14:09;97201.81;;;4.30;75.70
32251;BME280;41295;48.518;9.206;2022-12-07T01:16:14;97209.63;;;4.25;75.67
32251;BME280;41295;48.518;9.206;2022-12-07T01:18:17;97203.56;;;4.28;76.13
32251;BME280;41295;48.518;9.206;2022-12-07T01:20:20;97206.13;;;4.28;76.14
32251;BME280;41295;48.518;9.206;2022-12-07T01:22:24;97202.66;;;4.29;75.41
32251;BME280;41295;48.518;9.206;2022-12-07T01:24:26;97204.41;;;4.30;75.89
32251;BME280;41295;48.518;9.206;2022-12-07T01:26:29;97209.63;;;4.25;76.00
32251;BME280;41295;48.518;9.206;2022-12-07T01:28:31;97202.69;;;4.27;75.92
32251;BME280;41295;48.518;9.206;2022-12-07T01:30:35;97209.56;;;4.28;75.79
32251;BME280;41295;48.518;9.206;2022-12-07T01:32:37;97210.41;;;4.29;75.99
32251;BME280;41295;48.518;9.206;2022-12-07T01:34:40;97220.75;;;4.27;75.88
32251;BME280;41295;48.518;9.206;2022-12-07T01:36:42;97216.44;;;4.29;76.09
32251;BME280;41295;48.518;9.206;2022-12-07T01:38:48;97218.97;;;4.34;76.20
32251;BME280;41295;48.518;9.206;2022-12-07T01:40:56;97221.53;;;4.36;76.19
32251;BME280;41295;48.518;9.206;2022-12-07T01:42:59;97223.31;;;4.32;75.92
32251;BME280;41295;48.518;9.206;2022-12-07T01:47:51;97224.19;;;4.28;75.51
32251;BME280;41295;48.518;9.206;2022-12-07T01:49:54;97225.06;;;4.28;75.62
32251;BME280;41295;48.518;9.206;2022-12-07T01:52:03;97222.53;;;4.25;75.66
32251;BME280;41295;48.518;9.206;2022-12-07T01:54:11;97224.19;;;4.28;76.01
32251;BME280;41295;48.518;9.206;2022-12-07T01:56:18;97222.47;;;4.30;76.21
32251;BME280;41295;48.518;9.206;2022-12-07T01:58:23;97224.13;;;4.32;75.83
32251;BME280;41295;48.518;9.206;2022-12-07T02:00:26;97209.53;;;4.31;76.31
32251;BME280;41295;48.518;9.206;2022-12-07T02:02:32;97211.28;;;4.29;76.17
32251;BME280;41295;48.518;9.206;2022-12-07T02:04:35;97216.44;;;4.29;75.98
32251;BME280;41295;48.518;9.206;2022-12-07T02:06:38;97223.28;;;4.33;75.99
32251;BME280;41295;48.518;9.206;2022-12-07T02:08:41;97216.38;;;4.32;76.04
32251;BME280;41295;48.518;9.206;2022-12-07T02:10:45;97215.56;;;4.32;76.01
32251;BME280;41295;48.518;9.206;2022-12-07T02:12:50;97222.56;;;4.22;75.47
32251;BME280;41295;48.518;9.206;2022-12-07T02:14:55;97219.94;;;4.25;75.60
32251;BME280;41295;48.518;9.206;2022-12-07T02:17:06;97225.97;;;4.24;76.03
32251;BME280;41295;48.518;9.206;2022-12-07T02:19:37;97221.66;;;4.25;76.38
32251;BME280;41295;48.518;9.206;2022-12-07T02:21:51;97220.84;;;4.23;76.07
32251;BME280;41295;48.518;9.206;2022-12-07T02:26:40;97226.03;;;4.21;76.18
32251;BME280;41295;48.518;9.206;2022-12-07T02:29:07;97219.94;;;4.24;76.29
32251;BME280;41295;48.518;9.206;2022-12-07T02:31:16;97216.53;;;4.23;76.03
32251;BME280;41295;48.518;9.206;2022-12-07T02:33:24;97221.66;;;4.26;76.33
32251;BME280;41295;48.518;9.206;2022-12-07T02:35:32;97214.75;;;4.28;76.46
32251;BME280;41295;48.518;9.206;2022-12-07T02:37:41;97220.75;;;4.29;76.12
32251;BME280;41295;48.518;9.206;2022-12-07T02:39:49;97213.84;;;4.31;76.33
32251;BME280;41295;48.518;9.206;2022-12-07T02:41:56;97212.94;;;4.33;76.73
32251;BME280;41295;48.518;9.206;2022-12-07T02:44:03;97219.81;;;4.35;76.72
32251;BME280;41295;48.518;9.206;2022-12-07T02:46:10;97216.38;;;4.36;76.43
32251;BME280;41295;48.518;9.206;2022-12-07T02:48:17;97224.97;;;4.35;76.43
32251;BME280;41295;48.518;9.206;2022-12-07T02:50:21;97218.97;;;4.34;76.82
32251;BME280;41295;48.518;9.206;2022-12-07T02:52:24;97217.19;;;4.36;76.73
32251;BME280;41295;48.518;9.206;2022-12-07T02:54:26;97215.53;;;4.33;76.44
32251;BME280;41295;48.518;9.206;2022-12-07T02:56:35;97214.66;;;4.33;76.54
32251;BME280;41295;48.518;9.206;2022-12-07T02:58:50;97213.88;;;4.28;76.36
32251;BME280;41295;48.518;9.206;2022-12-07T03:01:04;97206.94;;;4.31;76.22
32251;BME280;41295;48.518;9.206;2022-12-07T03:03:13;97208.63;;;4.32;76.64
32251;BME280;41295;48.518;9.206;2022-12-07T03:08:00;97212.91;;;4.37;76.82
32251;BME280;41295;48.518;9.206;2022-12-07T03:10:10;97208.56;;;4.39;76.72
32251;BME280;41295;48.518;9.206;2022-12-07T03:12:18;97207.78;;;4.33;76.75
32251;BME280;41295;48.518;9.206;2022-12-07T03:14:23;97205.19;;;4.35;77.15
32251;BME280;41295;48.518;9.206;2022-12-07T03:16:33;97206.88;;;4.36;76.86
32251;BME280;41295;48.518;9.206;2022-12-07T03:18:41;97202.59;;;4.35;76.45
32251;BME280;41295;48.518;9.206;2022-12-07T03:20:48;97206.88;;;4.36;76.76
32251;BME280;41295;48.518;9.206;2022-12-07T03:22:53;97202.56;;;4.37;76.55
32251;BME280;41295;48.518;9.206;2022-12-07T03:24:58;97202.56;;;4.37;76.76
32251;BME280;41295;48.518;9.206;2022-12-07T03:27:06;97202.56;;;4.37;76.42
32251;BME280;41295;48.518;9.206;2022-12-07T03:29:21;97200.00;;;4.37;76.86
32251;BME280;41295;48.518;9.206;2022-12-07T03:31:31;97204.31;;;4.35;76.71
32251;BME280;41295;48.518;9.206;2022-12-07T03:33:39;97198.28;;;4.37;76.52
32251;BME280;41295;48.518;9.206;2022-12-07T03:35:48;97197.41;;;4.37;76.12
32251;BME280;41295;48.518;9.206;2022-12-07T03:37:56;97196.69;;;4.27;75.67
32251;BME280;41295;48.518;9.206;2022-12-07T03:40:05;97195.00;;;4.24;75.43
32251;BME280;41295;48.518;9.206;2022-12-07T03:42:10;97186.44;;;4.20;75.23
32251;BME280;41295;48.518;9.206;2022-12-07T03:44:15;97188.19;;;4.18;75.12
32251;BME280;41295;48.518;9.206;2022-12-07T03:46:23;97186.50;;;4.17;75.30
32251;BME280;41295;48.518;9.206;2022-12-07T03:48:35;97186.53;;;4.14;75.03
32251;BME280;41295;48.518;9.206;2022-12-07T03:50:45;97190.84;;;4.14;75.15
32251;BME280;41295;48.518;9.206;2022-12-07T03:52:55;97196.84;;;4.14;75.04
32251;BME280;41295;48.518;9.206;2022-12-07T03:55:02;97195.19;;;4.10;75.20
32251;BME280;41295;48.518;9.206;2022-12-07T03:57:08;97197.75;;;4.10;74.98
32251;BME280;41295;48.518;9.206;2022-12-07T03:59:13;97190.91;;;4.09;75.46
32251;BME280;41295;48.518;9.206;2022-12-07T04:01:17;97195.22;;;4.07;75.62
32251;BME280;41295;48.518;9.206;2022-12-07T04:03:20;97191.75;;;4.08;75.54
32251;BME280;41295;48.518;9.206;2022-12-07T04:05:25;97194.34;;;4.08;75.76
32251;BME280;41295;48.518;9.206;2022-12-07T04:07:27;97200.41;;;4.04;75.99
32251;BME280;41295;48.518;9.206;2022-12-07T04:09:30;97199.59;;;4.02;75.97
32251;BME280;41295;48.518;9.206;2022-12-07T04:11:33;97195.25;;;4.02;75.97
32251;BME280;41295;48.518;9.206;2022-12-07T04:13:36;97197.91;;;3.99;76.00
32251;BME280;41295;48.518;9.206;2022-12-07T04:15:52;97195.34;;;3.96;75.98
32251;BME280;41295;48.518;9.206;2022-12-07T04:17:55;97196.22;;;3.96;75.47
32251;BME280;41295;48.518;9.206;2022-12-07T04:19:58;97195.38;;;3.94;75.18
32251;BME280;41295;48.518;9.206;2022-12-07T04:22:04;97195.41;;;3.93;74.93
32251;BME280;41295;48.518;9.206;2022-12-07T04:24:07;97192.84;;;3.91;74.96
32251;BME280;41295;48.518;9.206;2022-12-07T04:26:09;97193.69;;;3.92;75.16
32251;BME280;41295;48.518;9.206;2022-12-07T04:28:12;97191.13;;;3.89;74.87
32251;BME280;41295;48.518;9.206;2022-12-07T04:30:15;97179.16;;;3.84;75.24
32251;BME280;41295;48.518;9.206;2022-12-07T04:32:17;97185.22;;;3.80;75.09
32251;BME280;41295;48.518;9.206;2022-12-07T04:34:20;97187.78;;;3.82;75.11
32251;BME280;41295;48.518;9.206;2022-12-07T04:36:23;97184.34;;;3.81;75.01
32251;BME280;41295;48.518;9.206;2022-12-07T04:38:27;97180.88;;;3.85;75.06
32251;BME280;41295;48.518;9.206;2022-12-07T04:40:29;97186.91;;;3.83;74.97
32251;BME280;41295;48.518;9.206;2022-12-07T04:42:32;97184.38;;;3.80;75.58
32251;BME280;41295;48.518;9.206;2022-12-07T04:44:35;97185.25;;;3.77;75.45
32251;BME280;41295;48.518;9.206;2022-12-07T04:46:37;97183.50;;;3.79;75.56
32251;BME280;41295;48.518;9.206;2022-12-07T04:48:40;97189.53;;;3.78;75.60
32251;BME280;41295;48.518;9.206;2022-12-07T04:50:42;97187.84;;;3.79;76.06
32251;BME280;41295;48.518;9.206;2022-12-07T04:52:46;97187.81;;;3.80;75.57
32251;BME280;41295;48.518;9.206;2022-12-07T04:54:51;97182.69;;;3.76;75.81
32251;BME280;41295;48.518;9.206;2022-12-07T04:56:53;97186.09;;;3.78;75.43
32251;BME280;41295;48.518;9.206;2022-12-07T04:58:56;97179.28;;;3.75;75.28
32251;BME280;41295;48.518;9.206;2022-12-07T05:00:59;97183.63;;;3.71;75.48
32251;BME280;41295;48.518;9.206;2022-12-07T05:03:01;97183.56;;;3.75;75.50
32251;BME280;41295;48.518;9.206;2022-12-07T05:05:04;97180.16;;;3.72;75.49
32251;BME280;41295;48.518;9.206;2022-12-07T05:07:07;97177.50;;;3.77;75.12
32251;BME280;41295;48.518;9.206;2022-12-07T05:09:10;97182.72;;;3.72;74.94
32251;BME280;41295;48.518;9.206;2022-12-07T05:11:14;97170.69;;;3.75;74.63
32251;BME280;41295;48.518;9.206;2022-12-07T05:13:37;97176.72;;;3.70;74.60
32251;BME280;41295;48.518;9.206;2022-12-07T05:15:40;97177.59;;;3.71;74.47
32251;BME280;41295;48.518;9.206;2022-12-07T05:17:44;97168.13;;;3.71;74.70
32251;BME280;41295;48.518;9.206;2022-12-07T05:19:46;97169.94;;;3.63;74.12
32251;BME280;41295;48.518;9.206;2022-12-07T05:21:49;97172.47;;;3.68;74.52
32251;BME280;41295;48.518;9.206;2022-12-07T05:23:52;97170.75;;;3.67;74.42
32251;BME280;41295;48.518;9.206;2022-12-07T05:25:54;97173.34;;;3.67;74.39
32251;BME280;41295;48.518;9.206;2022-12-07T05:27:58;97175.94;;;3.65;74.86
32251;BME280;41295;48.518;9.206;2022-12-07T05:30:02;97175.06;;;3.66;74.59
32251;BME280;41295;48.518;9.206;2022-12-07T05:32:05;97176.78;;;3.66;74.68
32251;BME280;41295;48.518;9.206;2022-12-07T05:34:08;97175.09;;;3.63;74.35
32251;BME280;41295;48.518;9.206;2022-12-07T05:36:11;97179.41;;;3.63;74.49
32251;BME280;41295;48.518;9.206;2022-12-07T05:38:13;97173.41;;;3.62;74.71
32251;BME280;41295;48.518;9.206;2022-12-07T05:40:16;97175.94;;;3.64;74.56
32251;BME280;41295;48.518;9.206;2022-12-07T05:42:20;97173.41;;;3.62;74.94
32251;BME280;41295;48.518;9.206;2022-12-07T05:44:24;97172.56;;;3.58;74.90
32251;BME280;41295;48.518;9.206;2022-12-07T05:46:26;97172.63;;;3.54;74.92
32251;BME280;41295;48.518;9.206;2022-12-07T05:48:29;97169.19;;;3.53;74.22
32251;BME280;41295;48.518;9.206;2022-12-07T05:50:35;97174.38;;;3.48;74.38
32251;BME280;41295;48.518;9.206;2022-12-07T05:52:37;97182.13;;;3.47;74.61
32251;BME280;41295;48.518;9.206;2022-12-07T05:54:40;97176.13;;;3.45;74.83
32251;BME280;41295;48.518;9.206;2022-12-07T05:56:42;97171.88;;;3.44;74.81
32251;BME280;41295;48.518;9.206;2022-12-07T05:58:45;97171.81;;;3.48;74.23
32251;BME280;41295;48.518;9.206;2022-12-07T06:01:09;97170.19;;;3.40;74.25
32251;BME280;41295;48.518;9.206;2022-12-07T06:03:11;97172.91;;;3.24;73.35
32251;BME280;41295;48.518;9.206;2022-12-07T06:05:14;97171.16;;;3.29;73.69
32251;BME280;41295;48.518;9.206;2022-12-07T06:07:17;97168.66;;;3.23;73.83
32251;BME280;41295;48.518;9.206;2022-12-07T06:09:20;97167.84;;;3.18;74.01
32251;BME280;41295;48.518;9.206;2022-12-07T06:11:23;97165.25;;;3.19;74.25
32251;BME280;41295;48.518;9.206;2022-12-07T06:13:43;97159.22;;;3.19;73.92
32251;BME280;41295;48.518;9.206;2022-12-07T06:15:47;97156.63;;;3.20;73.95
32251;BME280;41295;48.518;9.206;2022-12-07T06:17:51;97153.34;;;3.07;74.47
32251;BME280;41295;48.518;9.206;2022-12-07T06:19:54;97149.03;;;3.08;74.05
32251;BME280;41295;48.518;9.206;2022-12-07T06:21:57;97149.78;;;3.19;73.98
32251;BME280;41295;48.518;9.206;2022-12-07T06:24:00;97146.31;;;3.20;73.29
32251;BME280;41295;48.518;9.206;2022-12-07T06:26:03;97149.81;;;3.13;73.69
32251;BME280;41295;48.518;9.206;2022-12-07T06:28:06;97161.88;;;3.09;73.94
32251;BME280;41295;48.518;9.206;2022-12-07T06:30:09;97169.72;;;3.00;74.48
32251;BME280;41295;48.518;9.206;2022-12-07T06:32:11;97167.97;;;3.02;74.36
32251;BME280;41295;48.518;9.206;2022-12-07T06:34:17;97173.16;;;2.99;74.39
32251;BME280;41295;48.518;9.206;2022-12-07T06:36:21;97174.88;;;3.00;74.41
32251;BME280;41295;48.518;9.206;2022-12-07T06:38:27;97177.44;;;3.02;74.07
32251;BME280;41295;48.518;9.206;2022-12-07T06:40:30;97190.34;;;3.00;74.12
32251;BME280;41295;48.518;9.206;2022-12-07T06:42:32;97187.75;;;3.00;73.75
32251;BME280;41295;48.518;9.206;2022-12-07T06:44:35;97189.47;;;2.99;74.05
32251;BME280;41295;48.518;9.206;2022-12-07T06:46:38;97180.88;;;2.99;73.89
32251;BME280;41295;48.518;9.206;2022-12-07T06:48:41;97190.34;;;3.00;73.94
32251;BME280;41295;48.518;9.206;2022-12-07T06:50:45;97178.34;;;2.96;73.71
32251;BME280;41295;48.518;9.206;2022-12-07T06:52:55;97183.53;;;2.91;73.45
32251;BME280;41295;48.518;9.206;2022-12-07T06:54:57;97182.66;;;2.92;73.74
32251;BME280;41295;48.518;9.206;2022-12-07T06:57:00;97176.66;;;2.90;74.01
32251;BME280;41295;48.518;9.206;2022-12-07T06:59:04;97183.56;;;2.86;73.63
32251;BME280;41295;48.518;9.206;2022-12-07T07:01:09;97188.75;;;2.83;74.07
32251;BME280;41295;48.518;9.206;2022-12-07T07:03:12;97181.88;;;2.82;74.36
32251;BME280;41295;48.518;9.206;2022-12-07T07:05:15;97186.19;;;2.82;74.41
32251;BME280;41295;48.518;9.206;2022-12-07T07:07:19;97188.75;;;2.83;73.92
32251;BME280;41295;48.518;9.206;2022-12-07T07:09:22;97189.59;;;2.84;73.96
32251;BME280;41295;48.518;9.206;2022-12-07T07:11:24;97195.59;;;2.87;73.97
32251;BME280;41295;48.518;9.206;2022-12-07T07:13:27;97195.59;;;2.87;74.18
32251;BME280;41295;48.518;9.206;2022-12-07T07:15:30;97192.13;;;2.88;74.18
32251;BME280;41295;48.518;9.206;2022-12-07T07:17:33;97199.00;;;2.91;74.26
32251;BME280;41295;48.518;9.206;2022-12-07T07:19:35;97210.16;;;2.90;73.40
32251;BME280;41295;48.518;9.206;2022-12-07T07:21:38;97215.31;;;2.88;73.53
32251;BME280;41295;48.518;9.206;2022-12-07T07:23:42;97204.13;;;2.89;74.17
32251;BME280;41295;48.518;9.206;2022-12-07T07:25:45;97210.97;;;2.94;73.77
32251;BME280;41295;48.518;9.206;2022-12-07T07:27:48;97207.56;;;2.95;74.13
32251;BME280;41295;48.518;9.206;2022-12-07T07:29:50;97202.38;;;2.98;73.52
32251;BME280;41295;48.518;9.206;2022-12-07T07:31:53;97201.34;;;3.15;73.31
32251;BME280;41295;48.518;9.206;2022-12-07T07:33:55;97210.94;;;2.97;73.43
32251;BME280;41295;48.518;9.206;2022-12-07T07:35:58;97211.88;;;2.91;73.82
32251;BME280;41295;48.518;9.206;2022-12-07T07:38:01;97210.19;;;2.87;73.97
32251;BME280;41295;48.518;9.206;2022-12-07T07:40:07;97206.72;;;2.88;74.24
32251;BME280;41295;48.518;9.206;2022-12-07T07:42:10;97206.72;;;2.89;74.06
32251;BME280;41295;48.518;9.206;2022-12-07T07:44:12;97204.22;;;2.82;74.07
32251;BME280;41295;48.518;9.206;2022-12-07T07:46:15;97194.78;;;2.82;74.86
32251;BME280;41295;48.518;9.206;2022-12-07T07:48:17;97189.59;;;2.81;74.88
32251;BME280;41295;48.518;9.206;2022-12-07T07:50:21;97192.19;;;2.79;75.61
32251;BME280;41295;48.518;9.206;2022-12-07T07:52:24;97192.19;;;2.81;75.32
32251;BME280;41295;48.518;9.206;2022-12-07T07:54:27;97202.53;;;2.76;75.65
32251;BME280;41295;48.518;9.206;2022-12-07T07:56:31;97208.53;;;2.76;75.37
32251;BME280;41295;48.518;9.206;2022-12-07T07:58:34;97215.34;;;2.85;75.38
32251;BME280;41295;48.518;9.206;2022-12-07T08:00:37;97205.88;;;2.84;76.10
32251;BME280;41295;48.518;9.206;2022-12-07T08:02:40;97212.75;;;2.85;76.15
32251;BME280;41295;48.518;9.206;2022-12-07T08:04:44;97216.19;;;2.87;75.79
32251;BME280;41295;48.518;9.206;2022-12-07T08:06:47;97217.84;;;2.92;75.67
32251;BME280;41295;48.518;9.206;2022-12-07T08:08:50;97224.75;;;2.93;76.10
32251;BME280;41295;48.518;9.206;2022-12-07T08:10:52;97229.88;;;2.93;75.58
32251;BME280;41295;48.518;9.206;2022-12-07T08:12:56;97242.75;;;2.96;75.42
32251;BME280;41295;48.518;9.206;2022-12-07T08:15:15;97241.84;;;3.02;75.29
32251;BME280;41295;48.518;9.206;2022-12-07T08:17:18;97241.81;;;3.05;75.63
32251;BME280;41295;48.518;9.206;2022-12-07T08:19:20;97239.22;;;3.06;75.69
32251;BME280;41295;48.518;9.206;2022-12-07T08:21:23;97240.06;;;3.08;75.20
32251;BME280;41295;48.518;9.206;2022-12-07T08:23:26;97239.19;;;3.09;74.80
32251;BME280;41295;48.518;9.206;2022-12-07T08:25:39;97239.16;;;3.11;74.83
32251;BME280;41295;48.518;9.206;2022-12-07T08:27:42;97243.47;;;3.12;74.28
32251;BME280;41295;48.518;9.206;2022-12-07T08:29:46;97249.50;;;3.12;74.94
32251;BME280;41295;48.518;9.206;2022-12-07T08:31:49;97245.16;;;3.18;74.93
32251;BME280;41295;48.518;9.206;2022-12-07T08:33:51;97252.88;;;3.19;75.21
32251;BME280;41295;48.518;9.206;2022-12-07T08:35:54;97246.81;;;3.22;75.25
32251;BME280;41295;48.518;9.206;2022-12-07T08:37:57;97251.94;;;3.27;74.98
32251;BME280;41295;48.518;9.206;2022-12-07T08:39:59;97243.41;;;3.20;74.56
32251;BME280;41295;48.518;9.206;2022-12-07T08:42:03;97246.88;;;3.17;74.46
32251;BME280;41295;48.518;9.206;2022-12-07T08:44:06;97248.63;;;3.12;75.06
32251;BME280;41295;48.518;9.206;2022-12-07T08:46:13;97250.31;;;3.18;75.81
32251;BME280;41295;48.518;9.206;2022-12-07T08:48:21;97251.97;;;3.22;75.35
32251;BME280;41295;48.518;9.206;2022-12-07T08:50:26;97249.38;;;3.22;75.87
32251;BME280;41295;48.518;9.206;2022-12-07T08:52:29;97245.06;;;3.25;75.61
32251;BME280;41295;48.518;9.206;2022-12-07T08:54:33;97245.03;;;3.32;75.87
32251;BME280;41295;48.518;9.206;2022-12-07T08:56:36;97246.69;;;3.38;76.05
32251;BME280;41295;48.518;9.206;2022-12-07T08:58:40;97241.47;;;3.44;75.95
32251;BME280;41295;48.518;9.206;2022-12-07T09:00:42;97250.97;;;3.39;75.84
32251;BME280;41295;48.518;9.206;2022-12-07T09:02:46;97243.28;;;3.35;75.15
32251;BME280;41295;48.518;9.206;2022-12-07T09:04:49;97247.41;;;3.54;75.48
32251;BME280;41295;48.518;9.206;2022-12-07T09:06:53;97250.91;;;3.46;75.58
32251;BME280;41295;48.518;9.206;2022-12-07T09:08:58;97250.84;;;3.53;74.77
32251;BME280;41295;48.518;9.206;2022-12-07T09:11:03;97250.09;;;3.41;74.21
32251;BME280;41295;48.518;9.206;2022-12-07T09:13:06;97261.22;;;3.46;74.93
32251;BME280;41295;48.518;9.206;2022-12-07T09:15:09;97246.50;;;3.56;74.43
32251;BME280;41295;48.518;9.206;2022-12-07T09:17:12;97250.91;;;3.46;74.34
32251;BME280;41295;48.518;9.206;2022-12-07T09:19:16;97241.38;;;3.53;74.80
32251;BME280;41295;48.518;9.206;2022-12-07T09:21:19;97241.44;;;3.47;75.38
32251;BME280;41295;48.518;9.206;2022-12-07T09:23:21;97237.81;;;3.67;74.88
32251;BME280;41295;48.518;9.206;2022-12-07T09:25:24;97253.25;;;3.70;74.65
32251;BME280;41295;48.518;9.206;2022-12-07T09:27:28;97246.44;;;3.61;74.70
32251;BME280;41295;48.518;9.206;2022-12-07T09:29:30;97249.09;;;3.56;74.90
32251;BME280;41295;48.518;9.206;2022-12-07T09:31:35;97250.75;;;3.62;75.18
32251;BME280;41295;48.518;9.206;2022-12-07T09:33:38;97250.75;;;3.64;75.61
32251;BME280;41295;48.518;9.206;2022-12-07T09:35:46;97255.81;;;3.73;75.21
32251;BME280;41295;48.518;9.206;2022-12-07T09:37:49;97252.31;;;3.76;74.61
32251;BME280;41295;48.518;9.206;2022-12-07T09:39:52;97242.00;;;3.77;74.64
32251;BME280;41295;48.518;9.206;2022-12-07T09:41:54;97241.00;;;3.91;73.78
32251;BME280;41295;48.518;9.206;2022-12-07T09:44:03;97241.97;;;3.82;74.02
32251;BME280;41295;48.518;9.206;2022-12-07T09:46:12;97235.91;;;3.84;74.11
32251;BME280;41295;48.518;9.206;2022-12-07T09:48:18;97231.56;;;3.88;73.13
32251;BME280;41295;48.518;9.206;2022-12-07T09:50:24;97230.66;;;3.92;72.69
32251;BME280;41295;48.518;9.206;2022-12-07T09:52:29;97229.53;;;4.14;71.39
32251;BME280;41295;48.518;9.206;2022-12-07T09:54:40;97226.28;;;3.97;71.98
32251;BME280;41295;48.518;9.206;2022-12-07T09:56:44;97229.75;;;3.98;72.39
32251;BME280;41295;48.518;9.206;2022-12-07T09:58:47;97227.19;;;3.96;72.87
32251;BME280;41295;48.518;9.206;2022-12-07T10:00:53;97222.84;;;4.00;72.42
32251;BME280;41295;48.518;9.206;2022-12-07T10:02:59;97219.41;;;3.98;73.05
32251;BME280;41295;48.518;9.206;2022-12-07T10:05:05;97220.25;;;4.00;72.97
32251;BME280;41295;48.518;9.206;2022-12-07T10:07:09;97217.59;;;4.06;73.47
32251;BME280;41295;48.518;9.206;2022-12-07T10:09:14;97208.00;;;4.18;71.85
32251;BME280;41295;48.518;9.206;2022-12-07T10:11:17;97205.22;;;4.32;70.89
32251;BME280;41295;48.518;9.206;2022-12-07T10:13:21;97210.56;;;4.19;71.31
32251;BME280;41295;48.518;9.206;2022-12-07T10:15:42;97206.84;;;4.39;69.87
32251;BME280;41295;48.518;9.206;2022-12-07T10:17:48;97206.94;;;4.31;70.25
32251;BME280;41295;48.518;9.206;2022-12-07T10:19:52;97204.38;;;4.31;68.78
32251;BME280;41295;48.518;9.206;2022-12-07T10:22:09;97201.78;;;4.31;68.45
32251;BME280;41295;48.518;9.206;2022-12-07T10:24:14;97199.22;;;4.30;68.07
32251;BME280;41295;48.518;9.206;2022-12-07T10:26:28;97193.88;;;4.44;66.93
32251;BME280;41295;48.518;9.206;2022-12-07T10:28:34;97195.56;;;4.45;67.02
32251;BME280;41295;48.518;9.206;2022-12-07T10:30:51;97192.06;;;4.49;66.35
32251;BME280;41295;48.518;9.206;2022-12-07T10:32:54;97194.88;;;4.33;67.04
32251;BME280;41295;48.518;9.206;2022-12-07T10:35:19;97196.59;;;4.33;66.72
32251;BME280;41295;48.518;9.206;2022-12-07T10:37:22;97195.75;;;4.34;66.30
32251;BME280;41295;48.518;9.206;2022-12-07T10:39:40;97193.19;;;4.29;66.05
32251;BME280;41295;48.518;9.206;2022-12-07T10:41:54;97182.88;;;4.29;66.15
32251;BME280;41295;48.518;9.206;2022-12-07T10:43:58;97188.00;;;4.32;66.42
32251;BME280;41295;48.518;9.206;2022-12-07T10:46:18;97185.22;;;4.48;65.38
32251;BME280;41295;48.518;9.206;2022-12-07T10:48:30;97187.03;;;4.40;66.03
32251;BME280;41295;48.518;9.206;2022-12-07T10:50:54;97180.84;;;4.53;65.13
32251;BME280;41295;48.518;9.206;2022-12-07T10:53:31;97175.75;;;4.47;64.83
32251;BME280;41295;48.518;9.206;2022-12-07T10:55:49;97178.31;;;4.47;65.54
32251;BME280;41295;48.518;9.206;2022-12-07T10:58:11;97170.50;;;4.53;65.17
32251;BME280;41295;48.518;9.206;2022-12-07T11:00:21;97170.56;;;4.49;65.90
32251;BME280;41295;48.518;9.206;2022-12-07T11:02:31;97166.25;;;4.49;65.59
32251;BME280;41295;48.518;9.206;2022-12-07T11:04:55;97163.63;;;4.51;66.32
32251;BME280;41295;48.518;9.206;2022-12-07T11:07:10;97155.72;;;4.62;65.07
32251;BME280;41295;48.518;9.206;2022-12-07T11:09:27;97154.84;;;4.64;64.94
32251;BME280;41295;48.518;9.206;2022-12-07T11:12:04;97162.63;;;4.63;65.47
32251;BME280;41295;48.518;9.206;2022-12-07T11:14:17;97154.66;;;4.75;65.27
32251;BME280;41295;48.518;9.206;2022-12-07T11:16:37;97148.06;;;4.57;65.92
32251;BME280;41295;48.518;9.206;2022-12-07T11:18:49;97147.13;;;4.63;66.07
32251;BME280;41295;48.518;9.206;2022-12-07T11:20:59;97151.34;;;4.67;66.65